OIKQ  Dayrestan Airport

Add Bookmark

Iran

Status
Operational
Latitude Longitude
26° 45' 16" N 55° 54' 8" E
26.754601 55.902401
Local (DST + 5) UTC (GMT + 4)
Sep 22, 2014 03:41 Sep 22, 2014 12:11
Sunrise-Sunset Local UTC
Begin Civil Twilight 05:10 01:40
Sunrise 05:33 02:03
Sunset 05:44 14:14
End Civil Twilight 06:07 14:37

Current Weather

METAR Observed MVFR
OIKQ 221100Z 14010KT 7000 SKC 36/27 Q1003 Mon, Sep 22, 2014 @ 11:00 UTC
(1 Hour, 11 Minutes ago)
Marginal Visual Flight Rules
Wind Visibility Clouds Conditions
140° at 10 knots (19 kph) 7000 meters
  • Clear skies
  • No significant weather
Temperatures Readings Precipitation
Current Temp 36°C (97°F)
Dewpoint 27°C (81°F)
Heat Index 48°C (119°F)
Humidity 60%
Altimeter 29.62"Hg
Sea Level Pressure 1003mb
Field Elevation 39.37'
None Recorded

Additional weather within a 92.6km radius of OIKQ

Map ICAO Location
OIKB 69.8km N (042°)

24 Hour Weather History

Loading
-

24 Hour Weather Graphs

Loading
-

CheckWX.com is intended as a tool to help pilots better visualize weather data. It is not intended as a substitute for an official weather briefing obtained from a Flight Service Station. CheckWX.com does not meet the FAA requirements for an official pre-flight weather briefing. Therefore, it's important that pilots still call and obtain an official FSS pre-flight weather briefing.